Time;durP1;ratioP1;P1;durP2;ratioP2;P2;SDS_P1;SDS_P2;PMS_P1;PMS_P2;Temp;Humidity;BMP_temperature;BMP_pressure;BME280_temperature;BME280_humidity;BME280_pressure;Samples;Min_cycle;Max_cycle;Signal;HPM_P1;HPM_P2
2020/12/11 00:00:23;;;;;;;31.58;17.63;;;-1.00;96.20;;;;;;5028725;28;20041;-75
2020/12/11 00:02:50;;;;;;;29.20;16.52;;;-1.00;96.40;;;;;;5015501;28;20521;-75
2020/12/11 00:05:16;;;;;;;33.63;19.92;;;-1.10;96.60;;;;;;5032688;28;20053;-75
2020/12/11 00:07:45;;;;;;;39.63;19.35;;;-1.00;96.60;;;;;;5025920;28;20088;-75
2020/12/11 00:10:13;;;;;;;36.00;18.92;;;-1.00;96.30;;;;;;5013544;28;20106;-75
2020/12/11 00:12:39;;;;;;;29.90;16.60;;;-1.00;96.30;;;;;;5029439;28;20049;-75
2020/12/11 00:15:07;;;;;;;28.13;15.88;;;-1.00;96.40;;;;;;5029027;28;20203;-75
2020/12/11 00:17:34;;;;;;;27.63;15.65;;;-1.00;96.40;;;;;;5029172;28;20073;-75
2020/12/11 00:20:02;;;;;;;33.58;18.65;;;-1.10;96.30;;;;;;5024180;28;20506;-75
2020/12/11 00:22:28;;;;;;;37.97;20.98;;;-1.10;96.50;;;;;;5028640;28;20139;-75
2020/12/11 00:24:54;;;;;;;35.33;17.42;;;-1.10;96.50;;;;;;5028948;28;20057;-75
2020/12/11 00:27:21;;;;;;;32.95;17.02;;;-1.00;96.80;;;;;;5028382;28;20568;-75
2020/12/11 00:29:48;;;;;;;29.30;16.42;;;-0.90;96.30;;;;;;5028962;28;20133;-75
2020/12/11 00:32:14;;;;;;;36.95;17.80;;;-1.00;95.90;;;;;;5028472;28;20046;-75
2020/12/11 00:34:40;;;;;;;26.85;15.93;;;-1.00;96.00;;;;;;5029008;28;20422;-76
2020/12/11 00:37:07;;;;;;;29.65;15.38;;;-1.00;96.40;;;;;;5027801;28;20049;-75
2020/12/11 00:39:34;;;;;;;23.33;13.52;;;-0.80;96.50;;;;;;5026908;28;20046;-75
2020/12/11 00:42:00;;;;;;;29.52;15.93;;;-0.70;96.10;;;;;;5028043;28;20422;-75
2020/12/11 00:44:27;;;;;;;26.58;14.77;;;-0.70;96.00;;;;;;5028129;28;20045;-74
2020/12/11 00:46:55;;;;;;;31.15;16.30;;;-0.70;95.80;;;;;;5027905;28;20541;-74
2020/12/11 00:49:22;;;;;;;20.77;11.48;;;-0.70;95.80;;;;;;5027841;28;20104;-73
2020/12/11 00:51:54;;;;;;;23.75;13.57;;;-0.70;95.80;;;;;;5027794;28;20049;-73
2020/12/11 00:54:20;;;;;;;22.40;12.80;;;-0.70;96.00;;;;;;5028211;28;20053;-74
2020/12/11 00:56:47;;;;;;;20.85;12.57;;;-0.70;95.90;;;;;;5027254;28;20292;-74
2020/12/11 00:59:14;;;;;;;23.88;14.60;;;-0.70;95.80;;;;;;5027187;28;20119;-74
2020/12/11 01:01:40;;;;;;;23.58;14.20;;;-0.70;96.00;;;;;;5025874;28;20124;-73
2020/12/11 01:04:06;;;;;;;23.27;14.02;;;-0.70;95.90;;;;;;5025875;28;20042;-74
2020/12/11 01:06:33;;;;;;;23.70;13.57;;;-0.50;95.80;;;;;;5026979;28;20092;-74
2020/12/11 01:08:59;;;;;;;23.40;14.57;;;-0.40;95.50;;;;;;5024699;28;20129;-74
2020/12/11 01:11:26;;;;;;;24.20;14.07;;;-0.50;95.40;;;;;;5026153;28;20098;-74
2020/12/11 01:13:52;;;;;;;25.23;15.10;;;-0.50;95.80;;;;;;5028940;28;20173;-74
2020/12/11 01:16:19;;;;;;;20.88;13.93;;;-0.50;95.60;;;;;;5029590;28;20112;-74
2020/12/11 01:18:46;;;;;;;22.52;12.48;;;-0.50;95.60;;;;;;5029444;28;20049;-74
2020/12/11 01:21:12;;;;;;;19.05;11.90;;;-0.50;95.70;;;;;;5030990;28;20143;-75
2020/12/11 01:23:38;;;;;;;20.50;12.18;;;-0.50;95.70;;;;;;5031119;28;20049;-74
2020/12/11 01:26:09;;;;;;;21.35;12.60;;;-0.50;95.70;;;;;;5022763;28;20057;-73
2020/12/11 01:28:36;;;;;;;20.55;13.32;;;-0.40;95.60;;;;;;5029927;28;20422;-73
2020/12/11 01:31:03;;;;;;;22.33;13.52;;;-0.50;95.60;;;;;;5030390;28;20496;-74
2020/12/11 01:33:30;;;;;;;24.65;14.90;;;-0.40;95.50;;;;;;5029514;28;20053;-75
2020/12/11 01:35:56;;;;;;;23.58;13.90;;;-0.40;95.30;;;;;;5027973;28;20046;-74
2020/12/11 01:38:23;;;;;;;20.35;12.32;;;-0.30;95.30;;;;;;5031129;28;20139;-74
2020/12/11 01:40:49;;;;;;;21.92;13.25;;;-0.30;95.30;;;;;;5002684;28;773128;-74
2020/12/11 01:43:20;;;;;;;25.58;14.52;;;-0.20;95.20;;;;;;5030379;28;20128;-74
2020/12/11 01:45:47;;;;;;;22.27;12.68;;;-0.20;94.90;;;;;;5030462;28;20077;-74
2020/12/11 01:48:14;;;;;;;23.45;13.63;;;-0.10;94.90;;;;;;5030967;28;20137;-74
2020/12/11 01:50:40;;;;;;;23.55;14.10;;;-0.20;94.90;;;;;;5030578;28;20132;-74
2020/12/11 01:53:09;;;;;;;20.70;13.30;;;-0.20;94.80;;;;;;5030395;28;20041;-74
2020/12/11 01:55:39;;;;;;;22.27;13.60;;;-0.20;94.90;;;;;;5030954;28;20045;-74
2020/12/11 01:58:20;;;;;;;21.13;13.15;;;-0.20;95.10;;;;;;5029428;28;20133;-74
2020/12/11 02:00:47;;;;;;;22.65;14.15;;;-0.20;95.20;;;;;;5031766;28;20125;-74
2020/12/11 02:03:18;;;;;;;21.55;13.20;;;-0.20;95.20;;;;;;5031169;28;20045;-74
2020/12/11 02:05:44;;;;;;;21.92;13.75;;;-0.20;95.10;;;;;;5029905;28;20502;-74
2020/12/11 02:08:12;;;;;;;22.88;12.93;;;-0.10;95.00;;;;;;5030895;28;20510;-74
2020/12/11 02:10:38;;;;;;;22.85;14.07;;;-0.10;95.00;;;;;;5030413;28;20507;-74
2020/12/11 02:13:08;;;;;;;22.00;12.48;;;-0.10;94.90;;;;;;5029838;28;20478;-74
2020/12/11 02:15:35;;;;;;;22.95;14.45;;;0.00;94.70;;;;;;5030874;28;20077;-74
2020/12/11 02:18:02;;;;;;;19.52;13.20;;;0.10;94.70;;;;;;5026515;28;20178;-74
2020/12/11 02:20:29;;;;;;;23.08;14.48;;;0.20;94.40;;;;;;5028887;28;20339;-74
2020/12/11 02:22:55;;;;;;;17.27;10.38;;;0.20;94.30;;;;;;5028199;28;20123;-74
2020/12/11 02:25:22;;;;;;;16.50;10.00;;;0.20;94.30;;;;;;5027860;28;20184;-74
2020/12/11 02:27:48;;;;;;;19.17;11.10;;;0.10;94.40;;;;;;5031329;28;20352;-74
2020/12/11 02:30:16;;;;;;;19.80;12.13;;;0.10;94.70;;;;;;5029863;28;20124;-74
2020/12/11 02:32:43;;;;;;;19.65;11.50;;;0.10;94.70;;;;;;5029968;28;20069;-74
2020/12/11 02:35:10;;;;;;;22.33;13.65;;;0.10;94.50;;;;;;5030183;28;20077;-74
2020/12/11 02:37:37;;;;;;;20.83;12.52;;;0.10;94.50;;;;;;5028304;28;20137;-74
2020/12/11 02:40:08;;;;;;;21.42;12.95;;;0.20;94.60;;;;;;5030236;28;20049;-74
2020/12/11 02:42:34;;;;;;;22.13;12.98;;;0.10;94.50;;;;;;5030623;28;20053;-74
2020/12/11 02:45:01;;;;;;;22.40;13.40;;;0.10;94.40;;;;;;5030398;28;20089;-74
2020/12/11 02:47:32;;;;;;;22.83;13.20;;;0.20;94.50;;;;;;5029671;28;20529;-74
2020/12/11 02:50:01;;;;;;;23.90;13.07;;;0.20;94.40;;;;;;5030759;28;20240;-74
2020/12/11 02:52:27;;;;;;;22.08;14.20;;;0.20;94.30;;;;;;5028438;28;20124;-74
2020/12/11 02:54:53;;;;;;;20.50;13.15;;;0.10;94.40;;;;;;5028282;28;20061;-74
2020/12/11 02:57:20;;;;;;;19.83;10.73;;;0.10;94.50;;;;;;5028210;28;20140;-74
2020/12/11 02:59:47;;;;;;;21.02;13.07;;;0.10;94.50;;;;;;5020082;28;20142;-74
2020/12/11 03:02:13;;;;;;;20.75;12.82;;;0.20;94.40;;;;;;5029111;28;20049;-74
2020/12/11 03:04:40;;;;;;;20.83;12.23;;;0.10;94.40;;;;;;5031097;28;20132;-73
2020/12/11 03:07:07;;;;;;;23.70;13.40;;;0.10;94.50;;;;;;5027678;28;20345;-74
2020/12/11 03:09:34;;;;;;;18.88;11.50;;;0.10;94.60;;;;;;5030072;28;20136;-74
2020/12/11 03:12:01;;;;;;;22.30;13.43;;;0.10;94.40;;;;;;5029654;28;20045;-74
2020/12/11 03:14:27;;;;;;;20.95;13.40;;;0.10;94.40;;;;;;5028940;28;20068;-74
2020/12/11 03:16:53;;;;;;;21.17;11.45;;;0.00;94.60;;;;;;5028790;28;20069;-74
2020/12/11 03:19:20;;;;;;;21.60;12.60;;;-0.10;94.80;;;;;;5029651;28;20075;-74
2020/12/11 03:21:47;;;;;;;20.23;11.32;;;-0.10;94.70;;;;;;5029822;28;20522;-74
2020/12/11 03:24:13;;;;;;;23.77;12.88;;;-0.10;94.80;;;;;;5029302;28;20141;-74
2020/12/11 03:26:39;;;;;;;21.83;14.05;;;-0.10;94.80;;;;;;5028055;28;20117;-74
2020/12/11 03:29:05;;;;;;;23.35;14.18;;;-0.10;94.90;;;;;;5029333;28;20095;-74
2020/12/11 03:31:32;;;;;;;19.50;12.35;;;-0.20;94.90;;;;;;5028444;28;20053;-74
2020/12/11 03:33:59;;;;;;;21.92;13.63;;;-0.30;95.10;;;;;;5029654;28;20041;-74
2020/12/11 03:36:25;;;;;;;21.80;14.13;;;-0.30;95.20;;;;;;5027744;28;20072;-74
2020/12/11 03:38:51;;;;;;;21.90;14.35;;;-0.30;95.20;;;;;;5029013;28;20077;-74
2020/12/11 03:41:18;;;;;;;24.77;14.48;;;-0.30;95.10;;;;;;5029475;28;20490;-74
2020/12/11 03:43:44;;;;;;;22.80;14.88;;;-0.20;95.20;;;;;;5029024;28;20076;-74
2020/12/11 03:46:18;;;;;;;24.02;13.77;;;-0.20;95.20;;;;;;5026980;28;20073;-74
2020/12/11 03:48:46;;;;;;;22.65;13.25;;;-0.10;95.00;;;;;;5028234;28;20510;-74
2020/12/11 03:51:17;;;;;;;20.15;12.68;;;-0.20;95.00;;;;;;5027985;28;20045;-75
2020/12/11 03:53:44;;;;;;;25.92;14.30;;;-0.20;95.10;;;;;;5027752;28;20061;-74
2020/12/11 03:56:13;;;;;;;23.67;13.88;;;-0.20;95.10;;;;;;5027295;28;20539;-74
2020/12/11 03:58:39;;;;;;;22.98;14.05;;;-0.20;95.10;;;;;;5023216;28;20060;-74
2020/12/11 04:01:12;;;;;;;21.40;12.88;;;-0.20;95.10;;;;;;5027694;28;20486;-74
2020/12/11 04:03:39;;;;;;;24.75;14.20;;;-0.20;95.10;;;;;;5027991;28;20049;-75
2020/12/11 04:06:14;;;;;;;25.23;15.13;;;-0.20;95.10;;;;;;5026509;28;20128;-74
2020/12/11 04:08:42;;;;;;;22.15;13.50;;;-0.20;95.20;;;;;;5028142;28;20080;-74
2020/12/11 04:11:13;;;;;;;25.73;15.02;;;-0.10;95.10;;;;;;5027868;28;20073;-74
2020/12/11 04:13:41;;;;;;;23.55;14.45;;;0.00;94.90;;;;;;5027857;28;20128;-74
2020/12/11 04:16:09;;;;;;;27.33;16.13;;;0.10;94.70;;;;;;5027516;28;20053;-74
2020/12/11 04:18:36;;;;;;;25.95;16.05;;;0.10;94.80;;;;;;5025908;28;20136;-74
2020/12/11 04:21:02;;;;;;;25.67;15.27;;;0.10;94.80;;;;;;5029098;28;20557;-74
2020/12/11 04:23:31;;;;;;;26.63;16.20;;;0.20;94.80;;;;;;5028057;28;20692;-74
2020/12/11 04:25:57;;;;;;;25.98;14.93;;;0.20;94.70;;;;;;5026442;28;20088;-74
2020/12/11 04:28:24;;;;;;;22.83;13.85;;;0.20;94.70;;;;;;5026589;28;20141;-74
2020/12/11 04:30:50;;;;;;;25.15;14.70;;;0.20;94.60;;;;;;5029083;28;20041;-74
2020/12/11 04:33:17;;;;;;;25.98;16.40;;;0.20;94.80;;;;;;5028085;28;20084;-74
2020/12/11 04:35:43;;;;;;;27.33;15.40;;;0.20;94.80;;;;;;5027830;28;20402;-74
2020/12/11 04:38:10;;;;;;;24.20;15.43;;;0.20;94.60;;;;;;5026314;28;20045;-74
2020/12/11 04:40:36;;;;;;;29.92;18.02;;;0.20;94.70;;;;;;5027961;28;20077;-74
2020/12/11 04:43:09;;;;;;;25.08;15.38;;;0.30;94.80;;;;;;5025420;28;20055;-74
2020/12/11 04:45:40;;;;;;;26.48;17.40;;;0.30;94.60;;;;;;5027804;28;20054;-74
2020/12/11 04:48:10;;;;;;;28.70;16.50;;;0.40;94.60;;;;;;5025255;28;20110;-75
2020/12/11 04:50:37;;;;;;;30.13;17.33;;;0.40;94.50;;;;;;5028751;28;20080;-74
2020/12/11 04:53:04;;;;;;;27.20;16.58;;;0.30;94.40;;;;;;5027504;28;20132;-74
2020/12/11 04:55:35;;;;;;;29.08;17.17;;;0.40;94.50;;;;;;5027685;28;20165;-74
2020/12/11 04:58:05;;;;;;;27.85;18.05;;;0.40;94.30;;;;;;5026445;28;20092;-74
2020/12/11 05:00:31;;;;;;;26.77;15.75;;;0.40;94.50;;;;;;5026933;28;20136;-74
2020/12/11 05:02:58;;;;;;;29.70;16.90;;;0.40;94.50;;;;;;5028650;28;20072;-74
2020/12/11 05:05:24;;;;;;;27.63;16.30;;;0.40;94.60;;;;;;5027523;28;20111;-75
2020/12/11 05:07:51;;;;;;;25.63;15.00;;;0.40;94.20;;;;;;5025167;28;20133;-74
2020/12/11 05:10:17;;;;;;;25.90;16.23;;;0.50;94.00;;;;;;5026961;28;20127;-74
2020/12/11 05:12:43;;;;;;;28.85;17.10;;;0.60;93.90;;;;;;5027362;28;20415;-74
2020/12/11 05:15:12;;;;;;;25.42;15.40;;;0.60;94.10;;;;;;5027843;28;20041;-74
2020/12/11 05:17:40;;;;;;;29.63;17.30;;;0.60;94.00;;;;;;5024544;28;20111;-74
2020/12/11 05:20:09;;;;;;;32.40;18.05;;;0.50;94.20;;;;;;5028725;28;20053;-74
2020/12/11 05:22:37;;;;;;;29.80;17.08;;;0.60;93.80;;;;;;5025366;28;20121;-74
2020/12/11 05:25:12;;;;;;;26.83;16.75;;;0.60;93.90;;;;;;5027531;28;20117;-74
2020/12/11 05:27:43;;;;;;;29.63;17.38;;;0.60;93.90;;;;;;5024935;28;20077;-76
2020/12/11 05:30:10;;;;;;;29.42;16.85;;;0.70;94.00;;;;;;5027606;28;20107;-75
2020/12/11 05:32:56;;;;;;;28.55;17.40;;;0.70;94.00;;;;;;5028608;28;20411;-75
2020/12/11 05:35:25;;;;;;;30.15;16.45;;;0.70;93.80;;;;;;5027080;28;20111;-75
2020/12/11 05:38:02;;;;;;;23.77;15.93;;;0.70;93.80;;;;;;5025513;28;20432;-75
2020/12/11 05:40:30;;;;;;;28.75;16.33;;;0.70;93.50;;;;;;5025838;28;20068;-75
2020/12/11 05:43:02;;;;;;;25.02;15.07;;;0.80;93.40;;;;;;5028192;28;20344;-75
2020/12/11 05:45:29;;;;;;;29.08;16.33;;;0.80;93.50;;;;;;5027197;28;20448;-75
2020/12/11 05:47:59;;;;;;;28.38;17.40;;;0.80;93.60;;;;;;5026524;28;20052;-75
2020/12/11 05:50:25;;;;;;;26.95;16.55;;;0.80;93.50;;;;;;5028330;28;20055;-75
2020/12/11 05:52:53;;;;;;;31.02;17.05;;;0.80;93.50;;;;;;5026054;28;20045;-75
2020/12/11 05:55:21;;;;;;;27.17;16.67;;;0.70;93.50;;;;;;5031665;28;20128;-75
2020/12/11 05:57:54;;;;;;;27.70;15.73;;;0.70;93.90;;;;;;5027273;28;20048;-75
2020/12/11 06:00:20;;;;;;;25.77;14.10;;;0.60;94.00;;;;;;5032268;28;20077;-75
2020/12/11 06:02:48;;;;;;;28.58;16.58;;;0.60;94.00;;;;;;5039605;28;20120;-75
2020/12/11 06:05:16;;;;;;;29.02;15.38;;;0.60;94.10;;;;;;5039273;28;20118;-75
2020/12/11 06:07:44;;;;;;;27.77;15.13;;;0.60;94.20;;;;;;5045762;28;20052;-75
2020/12/11 06:10:15;;;;;;;26.13;15.52;;;0.70;94.10;;;;;;5037886;28;20069;-75
2020/12/11 06:12:42;;;;;;;26.38;15.65;;;0.70;93.80;;;;;;5036733;28;20140;-75
2020/12/11 06:15:49;;;;;;;25.10;14.60;;;0.70;93.80;;;;;;5038112;28;20128;-75
2020/12/11 06:18:17;;;;;;;27.75;17.65;;;0.80;93.70;;;;;;5025228;28;20474;-75
2020/12/11 06:20:47;;;;;;;23.75;13.60;;;0.80;93.50;;;;;;5032981;28;20099;-75
2020/12/11 06:23:29;;;;;;;28.67;16.23;;;0.80;93.30;;;;;;5025410;28;20056;-75
2020/12/11 06:26:01;;;;;;;25.42;14.95;;;0.90;93.60;;;;;;5031360;28;20387;-75
2020/12/11 06:28:53;;;;;;;26.05;14.25;;;0.90;93.40;;;;;;5031247;28;20195;-75
2020/12/11 06:31:22;;;;;;;26.77;15.98;;;1.00;93.10;;;;;;5031663;28;20093;-76
2020/12/11 06:33:54;;;;;;;26.98;16.20;;;1.00;93.10;;;;;;5029959;28;20129;-74
2020/12/11 06:36:21;;;;;;;22.88;14.38;;;0.90;93.40;;;;;;5030984;28;20451;-74
2020/12/11 06:38:51;;;;;;;27.08;15.38;;;0.90;93.70;;;;;;5031087;28;20049;-74
2020/12/11 06:41:27;;;;;;;27.13;15.68;;;0.90;93.90;;;;;;5031035;28;20511;-74
2020/12/11 06:43:57;;;;;;;26.65;15.82;;;0.80;94.10;;;;;;5016238;28;20441;-74
2020/12/11 06:46:27;;;;;;;24.20;14.82;;;0.80;94.30;;;;;;5015614;28;20058;-74
2020/12/11 06:49:06;;;;;;;26.98;16.05;;;0.90;94.60;;;;;;5020197;28;20498;-75
2020/12/11 06:51:53;;;;;;;27.00;15.75;;;0.90;94.90;;;;;;5022582;28;20132;-74
2020/12/11 06:54:19;;;;;;;25.42;15.75;;;0.80;95.30;;;;;;5020248;28;20144;-74
2020/12/11 06:56:48;;;;;;;21.98;11.75;;;0.90;95.40;;;;;;5027855;28;20052;-74
2020/12/11 06:59:24;;;;;;;26.92;16.27;;;0.80;95.50;;;;;;5018491;28;20475;-74
2020/12/11 07:01:52;;;;;;;28.58;15.73;;;0.80;95.60;;;;;;5028258;28;20063;-74
2020/12/11 07:04:20;;;;;;;25.58;15.95;;;0.80;95.80;;;;;;5029096;28;20195;-75
2020/12/11 07:06:47;;;;;;;23.10;14.13;;;0.80;95.50;;;;;;5029092;28;20088;-74
2020/12/11 07:09:15;;;;;;;24.70;15.18;;;0.80;95.70;;;;;;5029519;28;20111;-74
2020/12/11 07:11:46;;;;;;;22.52;13.55;;;0.80;95.90;;;;;;5029570;28;20084;-74
2020/12/11 07:14:13;;;;;;;25.17;14.50;;;0.70;96.00;;;;;;5028139;28;20049;-74
2020/12/11 07:16:44;;;;;;;26.45;14.25;;;0.70;96.10;;;;;;5028165;28;20045;-74
2020/12/11 07:19:11;;;;;;;25.23;13.50;;;0.70;96.10;;;;;;5029389;28;20129;-74
2020/12/11 07:21:40;;;;;;;27.17;15.52;;;0.70;96.20;;;;;;5029401;28;20064;-74
2020/12/11 07:24:07;;;;;;;25.15;14.48;;;0.70;96.10;;;;;;5027841;28;20463;-74
2020/12/11 07:26:34;;;;;;;22.17;12.38;;;0.70;96.10;;;;;;5028462;28;20073;-74
2020/12/11 07:29:16;;;;;;;24.40;13.88;;;0.70;95.60;;;;;;5028094;28;20236;-74
2020/12/11 07:31:46;;;;;;;22.98;13.40;;;0.80;95.50;;;;;;5021499;28;20083;-75
2020/12/11 07:34:21;;;;;;;21.30;12.80;;;0.80;95.10;;;;;;5029214;28;20133;-75
2020/12/11 07:36:55;;;;;;;25.58;13.52;;;0.80;95.00;;;;;;5017760;28;20132;-75
2020/12/11 07:39:24;;;;;;;22.23;12.52;;;0.90;94.90;;;;;;5029409;28;20061;-75
2020/12/11 07:41:51;;;;;;;24.05;12.98;;;0.90;94.70;;;;;;5024646;28;20099;-74
2020/12/11 07:44:25;;;;;;;18.80;11.50;;;1.00;94.30;;;;;;5021927;28;20088;-74
2020/12/11 07:46:53;;;;;;;19.15;11.48;;;1.00;94.20;;;;;;5024197;28;20080;-75
2020/12/11 07:49:20;;;;;;;18.73;11.25;;;1.00;93.80;;;;;;5028266;28;20053;-75
2020/12/11 07:51:49;;;;;;;17.00;10.35;;;1.00;93.80;;;;;;5028274;28;20099;-75
2020/12/11 07:54:16;;;;;;;21.75;12.85;;;1.00;93.20;;;;;;5028819;28;20404;-75
2020/12/11 07:56:43;;;;;;;26.33;13.40;;;1.10;93.10;;;;;;5028460;28;20083;-75
2020/12/11 07:59:14;;;;;;;24.90;14.65;;;1.20;93.50;;;;;;5028421;28;20084;-75
2020/12/11 08:01:46;;;;;;;30.25;16.88;;;1.10;93.70;;;;;;5027598;28;20502;-74
2020/12/11 08:04:13;;;;;;;20.10;11.95;;;1.10;93.80;;;;;;5028590;28;20085;-75
2020/12/11 08:06:59;;;;;;;25.08;13.88;;;1.10;94.30;;;;;;5028218;28;20124;-75
2020/12/11 08:09:33;;;;;;;21.17;12.70;;;1.00;94.40;;;;;;5026991;28;20475;-75
2020/12/11 08:12:19;;;;;;;21.70;13.10;;;1.00;94.60;;;;;;5027091;28;20465;-75
2020/12/11 08:14:46;;;;;;;22.75;13.07;;;1.00;94.60;;;;;;5026574;28;20061;-75
2020/12/11 08:17:14;;;;;;;16.42;9.93;;;1.00;94.70;;;;;;5026322;28;20125;-75
2020/12/11 08:19:42;;;;;;;18.30;12.18;;;1.10;94.30;;;;;;5018459;28;20075;-75
2020/12/11 08:22:14;;;;;;;20.30;12.70;;;1.10;94.70;;;;;;5027320;28;20141;-75
2020/12/11 08:24:41;;;;;;;20.52;11.93;;;1.10;94.60;;;;;;5027843;28;20093;-75
2020/12/11 08:27:24;;;;;;;20.15;11.02;;;1.10;94.30;;;;;;5026823;28;20131;-75
2020/12/11 08:30:04;;;;;;;24.67;10.13;;;1.10;94.40;;;;;;5027876;28;20466;-76
2020/12/11 08:32:31;;;;;;;23.20;12.73;;;1.10;94.90;;;;;;5023139;28;20538;-75
2020/12/11 08:34:59;;;;;;;20.02;11.55;;;1.20;94.70;;;;;;5027255;28;20059;-75
2020/12/11 08:37:25;;;;;;;18.55;11.93;;;1.20;94.50;;;;;;5026557;28;20068;-75
2020/12/11 08:40:04;;;;;;;19.58;11.07;;;1.20;94.40;;;;;;5026456;28;20554;-75
2020/12/11 08:42:43;;;;;;;21.42;12.35;;;1.30;94.20;;;;;;5009151;28;20073;-75
2020/12/11 08:45:21;;;;;;;18.70;12.50;;;1.30;94.30;;;;;;5021509;28;20111;-77
2020/12/11 08:53:13;;;;;;;18.88;11.70;;;1.50;93.70;;;;;;5027054;28;20453;-75
2020/12/11 08:55:39;;;;;;;23.00;13.10;;;1.50;93.90;;;;;;5024600;28;20121;-75
2020/12/11 08:58:07;;;;;;;18.55;10.48;;;1.50;94.10;;;;;;5026733;28;20129;-75
2020/12/11 09:00:37;;;;;;;18.08;11.30;;;1.60;94.10;;;;;;5027449;28;20038;-76
2020/12/11 09:03:03;;;;;;;20.17;12.68;;;1.60;93.90;;;;;;5026130;28;20049;-75
2020/12/11 09:05:30;;;;;;;24.25;14.40;;;1.70;93.50;;;;;;5026094;28;20056;-76
2020/12/11 09:07:57;;;;;;;18.48;11.57;;;1.70;93.60;;;;;;5027920;28;20466;-75
2020/12/11 09:10:23;;;;;;;17.10;11.20;;;1.80;93.80;;;;;;5027828;28;20132;-76
2020/12/11 09:12:51;;;;;;;20.15;12.73;;;1.80;93.80;;;;;;5027576;28;20494;-76
2020/12/11 09:15:19;;;;;;;15.02;9.15;;;1.90;93.50;;;;;;5028697;28;20111;-75
2020/12/11 09:17:46;;;;;;;19.05;9.90;;;1.90;93.60;;;;;;5026757;28;20133;-75
2020/12/11 09:20:13;;;;;;;14.43;8.65;;;1.90;93.60;;;;;;5026482;28;20045;-75
2020/12/11 09:22:40;;;;;;;18.45;9.27;;;1.90;93.50;;;;;;5027765;28;20576;-75
2020/12/11 09:25:07;;;;;;;16.23;9.30;;;1.90;93.50;;;;;;5027504;28;20077;-75
2020/12/11 09:27:37;;;;;;;15.25;9.35;;;2.00;93.50;;;;;;5027261;28;20072;-75
2020/12/11 09:30:16;;;;;;;15.18;8.77;;;2.00;93.50;;;;;;5027108;28;20077;-75
2020/12/11 09:32:59;;;;;;;14.93;8.35;;;2.00;93.60;;;;;;5021758;28;20172;-75
2020/12/11 09:35:27;;;;;;;14.75;9.10;;;2.20;93.10;;;;;;5028838;28;20518;-75
2020/12/11 09:37:54;;;;;;;12.98;7.00;;;2.20;92.90;;;;;;5030621;28;20115;-75
2020/12/11 09:40:32;;;;;;;11.93;7.13;;;2.20;92.80;;;;;;5030957;28;20041;-75
2020/12/11 09:46:04;;;;;;;14.93;8.43;;;2.20;92.80;;;;;;5022186;28;20128;-75
2020/12/11 09:56:05;;;;;;;13.50;7.70;;;2.20;92.70;;;;;;5030214;28;20564;-75
2020/12/11 09:58:34;;;;;;;12.05;6.97;;;2.20;92.50;;;;;;5012497;28;20410;-75
2020/12/11 10:01:02;;;;;;;13.38;7.68;;;2.30;92.30;;;;;;5031545;28;20088;-75
2020/12/11 10:03:35;;;;;;;10.57;6.22;;;2.40;92.50;;;;;;5026623;28;20132;-76
2020/12/11 10:06:05;;;;;;;14.93;7.53;;;2.30;92.20;;;;;;5030921;28;20128;-76
2020/12/11 10:08:32;;;;;;;12.57;7.78;;;2.40;92.40;;;;;;5030412;28;20327;-75
2020/12/11 10:10:59;;;;;;;11.07;7.10;;;2.40;92.00;;;;;;5028114;28;20103;-75
2020/12/11 10:13:26;;;;;;;12.13;7.25;;;2.50;92.30;;;;;;5028582;28;20053;-75
2020/12/11 10:15:52;;;;;;;9.63;6.60;;;2.70;91.90;;;;;;5023869;28;20156;-75
2020/12/11 10:18:18;;;;;;;9.02;6.25;;;2.70;91.90;;;;;;5029565;28;20431;-75
2020/12/11 10:20:45;;;;;;;12.55;6.32;;;2.80;92.10;;;;;;5031001;28;20124;-75
2020/12/11 10:23:12;;;;;;;11.55;6.80;;;2.90;91.70;;;;;;5030708;28;20081;-75
2020/12/11 10:25:38;;;;;;;10.32;5.88;;;2.90;92.20;;;;;;5031037;28;20049;-75
2020/12/11 10:28:05;;;;;;;9.80;6.25;;;2.90;92.10;;;;;;5027588;28;20085;-76
2020/12/11 10:30:32;;;;;;;10.25;6.72;;;2.90;92.00;;;;;;5027896;28;20109;-76
2020/12/11 10:32:59;;;;;;;8.75;5.78;;;3.00;92.20;;;;;;5030424;28;20045;-75
2020/12/11 10:35:25;;;;;;;9.77;6.07;;;3.10;91.80;;;;;;5030434;28;20649;-75
2020/12/11 10:37:51;;;;;;;14.20;6.00;;;3.10;91.90;;;;;;5029300;28;20073;-75
2020/12/11 10:40:18;;;;;;;9.52;5.90;;;3.20;91.10;;;;;;5029341;28;20140;-75
2020/12/11 10:42:44;;;;;;;11.13;6.30;;;3.20;91.20;;;;;;5029496;28;20107;-75
2020/12/11 10:45:10;;;;;;;9.55;6.38;;;3.20;91.00;;;;;;5030052;28;20073;-75
2020/12/11 10:47:37;;;;;;;9.52;6.10;;;3.20;91.10;;;;;;5026721;28;20112;-75
2020/12/11 10:50:03;;;;;;;10.73;6.43;;;3.30;91.00;;;;;;5029427;28;20053;-76
2020/12/11 10:52:30;;;;;;;11.75;5.72;;;3.30;90.90;;;;;;5029763;28;20060;-75
2020/12/11 10:54:56;;;;;;;11.15;5.72;;;3.20;90.70;;;;;;5029309;28;20472;-75
2020/12/11 10:57:23;;;;;;;9.93;6.20;;;3.20;90.90;;;;;;5030088;28;20049;-75
2020/12/11 10:59:50;;;;;;;9.38;5.35;;;3.20;91.00;;;;;;5029480;28;20758;-75
2020/12/11 11:02:16;;;;;;;9.23;5.32;;;3.30;90.60;;;;;;5030153;28;20042;-76
2020/12/11 11:04:43;;;;;;;10.05;5.85;;;3.40;90.70;;;;;;5029621;28;20053;-76
2020/12/11 11:07:15;;;;;;;10.82;6.30;;;3.40;90.40;;;;;;5028995;28;20053;-75
2020/12/11 11:09:55;;;;;;;10.17;4.77;;;3.40;90.40;;;;;;5030314;28;20482;-75
2020/12/11 11:12:31;;;;;;;10.68;6.13;;;3.30;90.30;;;;;;5029456;28;20053;-76
2020/12/11 11:22:57;;;;;;;8.60;5.20;;;3.20;90.80;;;;;;5029238;28;20515;-75
2020/12/11 11:27:59;;;;;;;10.48;5.57;;;3.30;90.50;;;;;;5025346;28;20049;-75
2020/12/11 11:30:26;;;;;;;8.60;5.28;;;3.40;90.50;;;;;;5026404;28;20107;-74
2020/12/11 11:32:53;;;;;;;12.95;6.38;;;3.50;90.40;;;;;;5028355;28;20121;-75
2020/12/11 11:35:20;;;;;;;9.02;5.45;;;3.50;90.40;;;;;;5027369;28;20050;-75
2020/12/11 11:37:48;;;;;;;13.68;6.45;;;3.60;89.90;;;;;;5022272;28;20065;-75
2020/12/11 11:40:15;;;;;;;9.23;4.97;;;3.70;90.30;;;;;;5026647;28;20152;-75
2020/12/11 11:42:42;;;;;;;8.60;5.28;;;3.70;90.10;;;;;;5027944;28;20241;-75
2020/12/11 11:45:14;;;;;;;7.63;4.78;;;3.70;89.70;;;;;;5025455;28;20046;-75
2020/12/11 11:47:44;;;;;;;8.23;4.93;;;3.70;90.00;;;;;;5028945;28;20049;-75
2020/12/11 11:52:57;;;;;;;9.13;5.38;;;3.70;89.60;;;;;;5028535;28;20509;-75
2020/12/11 11:55:23;;;;;;;9.35;4.60;;;3.60;90.20;;;;;;5027518;28;20191;-76
2020/12/11 11:57:50;;;;;;;7.65;4.90;;;3.60;90.20;;;;;;5026808;28;20121;-75
2020/12/11 12:00:16;;;;;;;6.03;3.95;;;3.60;90.00;;;;;;5028349;28;20050;-75
2020/12/11 12:02:43;;;;;;;7.85;4.80;;;3.60;90.20;;;;;;5029535;28;20049;-75
2020/12/11 12:05:10;;;;;;;11.80;6.85;;;3.60;90.10;;;;;;5028786;28;20113;-75
2020/12/11 12:07:38;;;;;;;9.98;5.03;;;3.60;90.10;;;;;;5028529;28;20080;-75
2020/12/11 12:10:08;;;;;;;8.57;5.05;;;3.60;90.10;;;;;;5026072;28;20069;-75
2020/12/11 12:12:41;;;;;;;8.27;5.05;;;3.70;90.60;;;;;;5028673;28;20471;-75
2020/12/11 12:15:10;;;;;;;7.50;4.53;;;3.70;90.60;;;;;;5029025;28;20137;-75
2020/12/11 12:17:51;;;;;;;8.52;5.22;;;3.70;90.10;;;;;;5028721;28;20042;-75
2020/12/11 12:20:25;;;;;;;7.47;4.22;;;3.70;90.30;;;;;;5027740;28;20124;-75
2020/12/11 12:28:40;;;;;;;8.90;5.30;;;3.80;90.00;;;;;;5015755;28;20137;-75
2020/12/11 12:31:07;;;;;;;13.07;6.05;;;3.80;90.10;;;;;;5027071;28;20128;-75
2020/12/11 12:43:53;;;;;;;8.40;5.15;;;3.60;90.10;;;;;;5027141;28;20050;-75
2020/12/11 12:46:19;;;;;;;8.70;5.13;;;3.60;89.90;;;;;;5027416;28;20436;-75
2020/12/11 12:48:46;;;;;;;9.07;5.43;;;3.60;90.20;;;;;;5025599;28;20042;-76
2020/12/11 12:51:13;;;;;;;7.93;4.80;;;3.60;90.30;;;;;;5030067;28;20139;-75
2020/12/11 12:53:39;;;;;;;9.48;5.45;;;3.60;90.60;;;;;;5031407;28;20041;-75
2020/12/11 12:58:59;;;;;;;8.45;5.25;;;3.40;91.00;;;;;;5026171;28;20514;-75
2020/12/11 13:01:44;;;;;;;9.68;5.00;;;3.30;91.50;;;;;;5028948;28;20084;-76
2020/12/11 13:06:46;;;;;;;9.95;5.75;;;3.20;92.00;;;;;;5035764;28;20083;-75
2020/12/11 13:09:14;;;;;;;8.20;5.03;;;3.10;92.10;;;;;;5031069;28;20041;-76
2020/12/11 13:11:40;;;;;;;10.68;6.32;;;3.00;92.70;;;;;;5030116;28;20148;-76
2020/12/11 13:14:12;;;;;;;10.35;6.65;;;3.00;93.30;;;;;;5026588;28;20042;-76
2020/12/11 13:16:38;;;;;;;10.63;6.35;;;3.00;93.40;;;;;;5030879;28;20410;-76
2020/12/11 13:19:06;;;;;;;11.93;6.40;;;3.00;93.20;;;;;;5030583;28;20155;-75
2020/12/11 13:21:38;;;;;;;10.85;6.03;;;2.90;93.40;;;;;;5029323;28;20123;-75
2020/12/11 13:26:52;;;;;;;9.98;6.22;;;2.80;93.60;;;;;;5028153;28;20049;-77
2020/12/11 13:29:18;;;;;;;9.43;5.40;;;2.80;93.60;;;;;;5023648;28;20050;-75
2020/12/11 13:31:45;;;;;;;13.25;7.47;;;2.70;93.80;;;;;;5030795;28;20076;-75
2020/12/11 13:34:12;;;;;;;12.20;6.80;;;2.70;94.20;;;;;;5031195;28;20049;-75
2020/12/11 13:36:38;;;;;;;11.60;6.80;;;2.60;94.40;;;;;;5028167;28;20194;-75
2020/12/11 13:39:05;;;;;;;11.80;7.03;;;2.60;95.10;;;;;;5030171;28;20128;-75